Time;durP1;ratioP1;P1;durP2;ratioP2;P2;SDS_P1;SDS_P2;PMS_P1;PMS_P2;Temp;Humidity;BMP_temperature;BMP_pressure;BME280_temperature;BME280_humidity;BME280_pressure;Samples;Min_cycle;Max_cycle;Signal;HPM_P1;HPM_P2
2022/01/19 00:01:07;;;;;;;80.97;33.95;;;;;;;;;;5076125;28;20111;-66
2022/01/19 00:03:33;;;;;;;99.28;40.50;;;;;;;;;;5093554;28;20375;-66
2022/01/19 00:05:59;;;;;;;104.32;43.88;;;;;;;;;;5075604;28;20131;-65
2022/01/19 00:08:26;;;;;;;116.63;42.95;;;;;;;;;;5094046;28;20036;-66
2022/01/19 00:10:53;;;;;;;105.18;42.88;;;;;;;;;;5094048;28;20054;-66
2022/01/19 00:13:20;;;;;;;79.05;34.10;;;;;;;;;;5093738;28;20475;-66
2022/01/19 00:15:46;;;;;;;90.40;35.78;;;;;;;;;;5076354;28;20407;-69
2022/01/19 00:18:13;;;;;;;88.22;36.47;;;;;;;;;;5095584;28;20024;-66
2022/01/19 00:20:39;;;;;;;70.82;31.15;;;;;;;;;;5095547;28;20024;-68
2022/01/19 00:23:06;;;;;;;63.13;28.40;;;;;;;;;;5095496;28;20392;-67
2022/01/19 00:25:32;;;;;;;60.33;27.27;;;;;;;;;;5095526;28;20035;-68
2022/01/19 00:27:59;;;;;;;51.17;24.50;;;;;;;;;;5095398;28;20020;-66
2022/01/19 00:30:26;;;;;;;63.83;26.95;;;;;;;;;;5095375;28;20039;-68
2022/01/19 00:32:53;;;;;;;58.45;26.45;;;;;;;;;;5077139;28;20039;-66
2022/01/19 00:35:19;;;;;;;57.08;25.08;;;;;;;;;;5073332;28;20063;-69
2022/01/19 00:37:45;;;;;;;50.38;22.38;;;;;;;;;;5075337;28;20468;-67
2022/01/19 00:40:14;;;;;;;51.30;20.50;;;;;;;;;;5073689;28;20094;-68
2022/01/19 00:42:41;;;;;;;49.08;21.52;;;;;;;;;;5073582;28;20060;-67
2022/01/19 00:45:07;;;;;;;59.45;23.55;;;;;;;;;;5075146;28;20042;-65
2022/01/19 00:47:33;;;;;;;66.20;24.85;;;;;;;;;;5073615;28;20111;-65
2022/01/19 00:50:00;;;;;;;58.58;24.08;;;;;;;;;;5074747;28;20448;-67
2022/01/19 00:52:26;;;;;;;41.35;20.00;;;;;;;;;;5074772;28;20028;-66
2022/01/19 00:54:52;;;;;;;40.67;19.15;;;;;;;;;;5074421;28;20025;-63
2022/01/19 00:57:18;;;;;;;47.92;19.08;;;;;;;;;;5074628;28;20181;-64
2022/01/19 00:59:44;;;;;;;55.50;21.92;;;;;;;;;;5074071;28;20035;-67
2022/01/19 01:02:11;;;;;;;66.05;29.52;;;;;;;;;;5072744;28;20032;-65
2022/01/19 01:04:37;;;;;;;88.93;36.53;;;;;;;;;;5074481;28;20112;-66
2022/01/19 01:07:03;;;;;;;64.95;28.05;;;;;;;;;;5073145;28;20448;-63
2022/01/19 01:09:30;;;;;;;55.28;25.45;;;;;;;;;;5074380;28;20025;-66
2022/01/19 01:12:11;;;;;;;65.82;26.98;;;;;;;;;;5074440;28;20487;-66
2022/01/19 01:20:09;;;;;;;59.05;24.85;;;;;;;;;;5074253;28;20035;-65
2022/01/19 01:22:35;;;;;;;54.47;22.83;;;;;;;;;;5074264;28;20028;-65
2022/01/19 01:25:01;;;;;;;53.60;23.38;;;;;;;;;;5074085;28;20024;-66
2022/01/19 01:27:28;;;;;;;54.42;22.05;;;;;;;;;;5072771;28;20387;-64
2022/01/19 01:29:54;;;;;;;63.05;25.20;;;;;;;;;;5074043;28;20051;-65
2022/01/19 01:32:20;;;;;;;55.78;24.83;;;;;;;;;;5073978;28;20545;-65
2022/01/19 01:34:47;;;;;;;68.70;25.77;;;;;;;;;;5079082;28;20542;-65
2022/01/19 01:37:13;;;;;;;69.13;25.83;;;;;;;;;;5094133;28;20479;-65
2022/01/19 01:39:39;;;;;;;66.18;29.17;;;;;;;;;;5094062;28;20059;-64
2022/01/19 01:42:10;;;;;;;70.53;29.42;;;;;;;;;;5094031;28;20058;-65
2022/01/19 01:44:37;;;;;;;82.40;33.88;;;;;;;;;;5093930;28;20031;-64
2022/01/19 01:47:03;;;;;;;103.65;40.28;;;;;;;;;;5093899;28;20031;-64
2022/01/19 01:54:59;;;;;;;103.55;44.75;;;;;;;;;;5093850;28;20093;-64
2022/01/19 01:57:26;;;;;;;59.15;27.70;;;;;;;;;;5093705;28;20464;-65
2022/01/19 01:59:52;;;;;;;56.75;25.70;;;;;;;;;;5093700;28;20055;-65
2022/01/19 02:02:18;;;;;;;49.45;24.90;;;;;;;;;;5075415;28;20111;-65
2022/01/19 02:04:45;;;;;;;60.65;25.83;;;;;;;;;;5075352;28;20032;-64
2022/01/19 02:10:00;;;;;;;54.72;26.58;;;;;;;;;;5093595;28;20119;-64
2022/01/19 02:23:45;;;;;;;67.63;26.80;;;;;;;;;;5093097;28;20093;-64
2022/01/19 02:26:18;;;;;;;70.30;27.60;;;;;;;;;;5093057;28;20443;-64
2022/01/19 02:42:07;;;;;;;87.75;32.75;;;;;;;;;;5093061;28;20395;-64
2022/01/19 02:46:37;;;;;;;74.15;31.77;;;;;;;;;;5093143;28;20028;-64
2022/01/19 02:49:51;;;;;;;74.43;31.15;;;;;;;;;;5093066;28;20032;-64
2022/01/19 02:52:19;;;;;;;66.77;27.77;;;;;;;;;;5074850;28;20543;-64
2022/01/19 02:54:45;;;;;;;69.97;27.93;;;;;;;;;;5093067;28;20103;-64
2022/01/19 02:57:13;;;;;;;73.55;28.20;;;;;;;;;;5092977;28;20028;-63
2022/01/19 03:10:15;;;;;;;70.13;28.23;;;;;;;;;;5092952;28;20501;-63
2022/01/19 03:12:41;;;;;;;58.70;24.60;;;;;;;;;;5092664;28;20119;-63
2022/01/19 03:15:08;;;;;;;52.83;22.15;;;;;;;;;;5092828;28;20067;-63
2022/01/19 03:17:34;;;;;;;63.53;25.70;;;;;;;;;;5093117;28;20051;-63
2022/01/19 03:20:01;;;;;;;71.82;29.17;;;;;;;;;;5074613;28;20028;-63
2022/01/19 03:22:34;;;;;;;85.73;34.97;;;;;;;;;;5092697;28;20119;-64
2022/01/19 03:25:00;;;;;;;73.65;30.13;;;;;;;;;;5077689;28;20036;-63
2022/01/19 03:27:27;;;;;;;74.30;30.47;;;;;;;;;;5096599;28;20066;-63
2022/01/19 03:29:53;;;;;;;72.37;28.60;;;;;;;;;;5096844;28;20028;-64
2022/01/19 03:32:20;;;;;;;62.85;27.95;;;;;;;;;;5096356;28;20109;-63
2022/01/19 03:34:46;;;;;;;77.00;28.63;;;;;;;;;;5096454;28;20056;-63
2022/01/19 03:37:12;;;;;;;70.60;30.63;;;;;;;;;;5078165;28;20119;-63
2022/01/19 03:39:38;;;;;;;74.35;31.50;;;;;;;;;;5096312;28;20471;-63
2022/01/19 03:42:06;;;;;;;68.30;30.65;;;;;;;;;;5096285;28;20024;-64
2022/01/19 03:44:32;;;;;;;66.35;28.90;;;;;;;;;;5096100;28;20455;-63
2022/01/19 03:47:01;;;;;;;64.35;26.90;;;;;;;;;;5078010;28;20464;-63
2022/01/19 03:49:32;;;;;;;57.08;22.83;;;;;;;;;;5096213;28;20028;-63
2022/01/19 03:52:00;;;;;;;58.88;22.88;;;;;;;;;;5096255;28;20107;-64
2022/01/19 03:54:27;;;;;;;63.90;26.00;;;;;;;;;;5096203;28;20024;-64
2022/01/19 03:56:54;;;;;;;69.07;27.08;;;;;;;;;;5077850;28;20026;-64
2022/01/19 03:59:20;;;;;;;93.13;31.98;;;;;;;;;;5077812;28;20486;-64
2022/01/19 04:01:47;;;;;;;62.38;24.40;;;;;;;;;;5095903;28;20035;-64
2022/01/19 04:04:33;;;;;;;55.03;20.65;;;;;;;;;;5095970;28;20028;-64
2022/01/19 04:07:07;;;;;;;54.33;21.67;;;;;;;;;;5095961;28;20107;-64
2022/01/19 04:09:34;;;;;;;51.13;22.58;;;;;;;;;;5077644;28;20028;-64
2022/01/19 04:12:02;;;;;;;69.10;26.33;;;;;;;;;;5077510;28;20475;-64
2022/01/19 04:14:28;;;;;;;62.33;24.90;;;;;;;;;;5095805;28;20066;-64
2022/01/19 04:17:02;;;;;;;63.40;27.30;;;;;;;;;;5077484;28;20051;-64
2022/01/19 04:19:32;;;;;;;53.72;24.38;;;;;;;;;;5095927;28;20193;-64
2022/01/19 04:21:59;;;;;;;64.38;25.27;;;;;;;;;;5077382;28;20035;-64
2022/01/19 04:24:26;;;;;;;64.07;24.48;;;;;;;;;;5095610;28;20042;-64
2022/01/19 04:29:40;;;;;;;47.90;20.48;;;;;;;;;;5095517;28;20046;-64
2022/01/19 04:32:12;;;;;;;58.00;22.35;;;;;;;;;;5095414;28;20032;-64
2022/01/19 04:34:43;;;;;;;57.70;24.90;;;;;;;;;;5094968;28;20051;-63
2022/01/19 05:08:03;;;;;;;53.47;23.33;;;;;;;;;;5094745;28;20031;-63
2022/01/19 05:15:07;;;;;;;33.20;13.53;;;;;;;;;;5094389;28;20054;-64
2022/01/19 05:17:34;;;;;;;33.40;14.23;;;;;;;;;;5094534;28;20031;-63
2022/01/19 05:20:00;;;;;;;36.33;15.15;;;;;;;;;;5094485;28;20035;-63
2022/01/19 05:22:33;;;;;;;34.03;15.43;;;;;;;;;;5094334;28;20150;-63
2022/01/19 05:25:00;;;;;;;45.15;19.00;;;;;;;;;;5094332;28;20479;-63
2022/01/19 05:27:26;;;;;;;62.70;22.98;;;;;;;;;;5094310;28;20035;-64
2022/01/19 05:29:52;;;;;;;54.78;20.38;;;;;;;;;;5094291;28;20030;-63
2022/01/19 05:32:19;;;;;;;59.35;23.73;;;;;;;;;;5094231;28;20040;-63
2022/01/19 05:34:45;;;;;;;66.28;27.75;;;;;;;;;;5093916;28;20129;-63
2022/01/19 05:37:11;;;;;;;72.25;27.10;;;;;;;;;;5094204;28;20024;-63
2022/01/19 05:39:38;;;;;;;91.05;35.33;;;;;;;;;;5094025;28;20059;-63
2022/01/19 05:42:04;;;;;;;107.95;42.22;;;;;;;;;;5093655;28;20036;-63
2022/01/19 05:44:31;;;;;;;83.97;33.92;;;;;;;;;;5075842;28;20032;-63
2022/01/19 05:46:57;;;;;;;95.75;41.25;;;;;;;;;;5093460;28;20025;-63
2022/01/19 05:49:23;;;;;;;104.13;44.23;;;;;;;;;;5093882;28;20397;-63
2022/01/19 05:51:49;;;;;;;107.45;43.45;;;;;;;;;;5075716;28;20024;-62
2022/01/19 05:54:18;;;;;;;95.20;41.67;;;;;;;;;;5075628;28;20111;-63
2022/01/19 05:56:44;;;;;;;103.68;43.10;;;;;;;;;;5075469;28;20024;-63
2022/01/19 05:59:11;;;;;;;104.25;41.92;;;;;;;;;;5093779;28;20032;-63
2022/01/19 06:01:37;;;;;;;106.65;44.35;;;;;;;;;;5093592;28;20024;-63
2022/01/19 06:04:03;;;;;;;120.30;44.75;;;;;;;;;;5093702;28;20024;-63
2022/01/19 06:06:32;;;;;;;98.38;40.30;;;;;;;;;;5093585;28;20537;-63
2022/01/19 06:09:08;;;;;;;94.63;39.27;;;;;;;;;;5093588;28;20448;-64
2022/01/19 06:11:35;;;;;;;93.45;40.50;;;;;;;;;;5075366;28;20020;-64
2022/01/19 06:14:01;;;;;;;97.65;40.95;;;;;;;;;;5075428;28;20122;-63
2022/01/19 06:16:27;;;;;;;99.03;37.38;;;;;;;;;;5093440;28;20103;-64
2022/01/19 06:18:53;;;;;;;90.00;36.72;;;;;;;;;;5093115;28;20115;-64
2022/01/19 06:21:19;;;;;;;98.88;41.53;;;;;;;;;;5093606;28;20024;-64
2022/01/19 06:23:45;;;;;;;100.07;40.73;;;;;;;;;;5093275;28;20474;-64
2022/01/19 06:26:12;;;;;;;107.73;46.57;;;;;;;;;;5093062;28;20103;-64
2022/01/19 06:28:38;;;;;;;145.13;57.30;;;;;;;;;;5093317;28;20024;-64
2022/01/19 06:31:06;;;;;;;184.13;75.90;;;;;;;;;;5088242;28;20016;-64
2022/01/19 06:33:32;;;;;;;220.03;88.33;;;;;;;;;;5092856;28;20035;-63
2022/01/19 06:35:58;;;;;;;234.47;102.97;;;;;;;;;;5092874;28;20054;-64
2022/01/19 06:38:24;;;;;;;211.77;92.93;;;;;;;;;;5092733;28;20437;-64
2022/01/19 06:40:51;;;;;;;194.60;85.13;;;;;;;;;;5093242;28;20031;-63
2022/01/19 06:43:17;;;;;;;193.73;83.55;;;;;;;;;;5092375;28;20028;-63
2022/01/19 06:45:43;;;;;;;160.25;69.53;;;;;;;;;;5092973;28;20495;-63
2022/01/19 06:48:09;;;;;;;119.07;48.45;;;;;;;;;;5092828;28;20028;-63
2022/01/19 06:50:35;;;;;;;153.02;62.55;;;;;;;;;;5093134;28;20024;-63
2022/01/19 06:53:01;;;;;;;110.10;44.07;;;;;;;;;;5092640;28;20032;-64
2022/01/19 06:55:28;;;;;;;106.85;42.78;;;;;;;;;;5074828;28;20464;-64
2022/01/19 06:57:54;;;;;;;106.47;43.77;;;;;;;;;;5092692;28;20521;-65
2022/01/19 07:00:20;;;;;;;117.70;53.23;;;;;;;;;;5097020;28;20075;-64
2022/01/19 07:02:47;;;;;;;129.02;55.75;;;;;;;;;;5097121;28;20109;-64
2022/01/19 07:05:13;;;;;;;96.53;40.22;;;;;;;;;;5078761;28;20119;-64
2022/01/19 07:07:39;;;;;;;86.47;33.05;;;;;;;;;;5096994;28;20024;-64
2022/01/19 07:10:07;;;;;;;94.50;37.15;;;;;;;;;;5078675;28;20028;-64
2022/01/19 07:12:33;;;;;;;95.38;38.28;;;;;;;;;;5096679;28;20524;-66
2022/01/19 07:15:00;;;;;;;100.88;36.15;;;;;;;;;;5096792;28;20352;-65
2022/01/19 07:17:26;;;;;;;86.85;35.03;;;;;;;;;;5078392;28;20029;-65
2022/01/19 07:19:52;;;;;;;85.30;31.65;;;;;;;;;;5096556;28;20035;-65
2022/01/19 07:22:18;;;;;;;77.30;32.20;;;;;;;;;;5078336;28;20028;-66
2022/01/19 07:24:44;;;;;;;78.32;28.75;;;;;;;;;;5078622;28;20464;-66
2022/01/19 07:27:11;;;;;;;56.47;23.65;;;;;;;;;;5096634;28;20077;-68
2022/01/19 07:29:37;;;;;;;69.80;27.65;;;;;;;;;;5096637;28;20030;-66
2022/01/19 07:32:03;;;;;;;65.38;31.10;;;;;;;;;;5096575;28;20450;-68
2022/01/19 07:34:29;;;;;;;73.78;32.33;;;;;;;;;;5077868;28;20034;-68
2022/01/19 07:36:56;;;;;;;85.68;40.28;;;;;;;;;;5076998;28;20119;-68
2022/01/19 07:39:23;;;;;;;79.38;36.20;;;;;;;;;;5076593;28;20032;-67
2022/01/19 07:41:50;;;;;;;90.72;38.90;;;;;;;;;;5085588;28;20439;-63
2022/01/19 07:44:16;;;;;;;90.50;39.58;;;;;;;;;;5087303;28;20115;-66
2022/01/19 07:46:43;;;;;;;98.80;41.45;;;;;;;;;;5076698;28;20111;-69
2022/01/19 07:49:09;;;;;;;102.85;40.13;;;;;;;;;;5076662;28;20032;-66
2022/01/19 07:51:35;;;;;;;79.63;34.80;;;;;;;;;;5075598;28;20480;-68
2022/01/19 07:54:01;;;;;;;79.63;35.03;;;;;;;;;;5076275;28;20074;-73
2022/01/19 07:56:28;;;;;;;68.07;31.52;;;;;;;;;;5076664;28;20024;-66
2022/01/19 07:58:54;;;;;;;76.88;32.55;;;;;;;;;;5076494;28;20141;-67
2022/01/19 08:01:20;;;;;;;84.57;38.50;;;;;;;;;;5094713;28;20039;-68
2022/01/19 08:03:46;;;;;;;99.13;42.95;;;;;;;;;;5094542;28;20050;-67
2022/01/19 08:06:13;;;;;;;94.93;41.33;;;;;;;;;;5094506;28;20468;-65
2022/01/19 08:08:39;;;;;;;92.85;40.17;;;;;;;;;;5076384;28;20055;-66
2022/01/19 08:11:05;;;;;;;88.45;40.45;;;;;;;;;;5094248;28;20051;-65
2022/01/19 08:13:31;;;;;;;95.60;44.28;;;;;;;;;;5076613;28;20462;-70
2022/01/19 08:15:57;;;;;;;87.97;35.08;;;;;;;;;;5094524;28;20024;-71
2022/01/19 08:18:23;;;;;;;78.10;29.92;;;;;;;;;;5094702;28;20107;-68
2022/01/19 08:20:50;;;;;;;67.57;29.60;;;;;;;;;;5076171;28;20079;-67
2022/01/19 08:23:16;;;;;;;48.45;23.23;;;;;;;;;;5094285;28;20031;-65
2022/01/19 08:25:42;;;;;;;58.10;24.25;;;;;;;;;;5076091;28;20024;-64
2022/01/19 08:28:09;;;;;;;51.83;24.35;;;;;;;;;;5094301;28;20038;-63
2022/01/19 08:30:35;;;;;;;51.50;24.63;;;;;;;;;;5094371;28;20106;-66
2022/01/19 08:33:02;;;;;;;70.82;26.52;;;;;;;;;;5094011;28;20043;-65
2022/01/19 08:35:28;;;;;;;48.80;19.75;;;;;;;;;;5047557;28;1322402;-66
2022/01/19 08:37:54;;;;;;;47.42;21.25;;;;;;;;;;5076780;28;20302;-66
2022/01/19 08:40:26;;;;;;;50.08;21.13;;;;;;;;;;5094366;28;20028;-66
2022/01/19 08:42:52;;;;;;;56.22;24.38;;;;;;;;;;5076384;28;20625;-64
2022/01/19 08:45:19;;;;;;;50.45;21.92;;;;;;;;;;5094831;28;20488;-66
2022/01/19 08:47:46;;;;;;;54.55;22.00;;;;;;;;;;5094480;28;20384;-65
2022/01/19 08:50:14;;;;;;;59.95;27.10;;;;;;;;;;5094744;28;20028;-65
2022/01/19 08:52:40;;;;;;;61.00;26.10;;;;;;;;;;5094579;28;20032;-66
2022/01/19 08:55:07;;;;;;;63.10;23.80;;;;;;;;;;5094257;28;20422;-66
2022/01/19 08:57:33;;;;;;;61.63;24.42;;;;;;;;;;5076464;28;20388;-64
2022/01/19 08:59:59;;;;;;;51.10;21.75;;;;;;;;;;5094659;28;20060;-69
2022/01/19 09:02:26;;;;;;;47.40;18.20;;;;;;;;;;5076148;28;20434;-68
2022/01/19 09:04:52;;;;;;;51.83;19.13;;;;;;;;;;5094694;28;20034;-67
2022/01/19 09:07:20;;;;;;;49.80;20.30;;;;;;;;;;5076515;28;20039;-65
2022/01/19 09:09:46;;;;;;;46.90;18.63;;;;;;;;;;5094601;28;20024;-66
2022/01/19 09:12:12;;;;;;;55.97;21.67;;;;;;;;;;5093518;28;20032;-67
2022/01/19 09:14:39;;;;;;;48.67;19.65;;;;;;;;;;5076363;28;20388;-65
2022/01/19 09:17:07;;;;;;;43.85;17.90;;;;;;;;;;5094543;28;20024;-65
2022/01/19 09:19:35;;;;;;;53.85;18.90;;;;;;;;;;5073914;28;20043;-64
2022/01/19 09:22:03;;;;;;;44.15;16.98;;;;;;;;;;5093460;28;20061;-67
2022/01/19 09:24:29;;;;;;;42.03;15.32;;;;;;;;;;5094342;28;20028;-64
2022/01/19 09:26:55;;;;;;;42.42;15.45;;;;;;;;;;5094400;28;20056;-66
2022/01/19 09:29:22;;;;;;;34.08;15.63;;;;;;;;;;5094170;28;20032;-64
2022/01/19 09:31:48;;;;;;;41.40;14.23;;;;;;;;;;5093776;28;20430;-65
2022/01/19 09:34:15;;;;;;;34.25;13.32;;;;;;;;;;5094039;28;20108;-67
2022/01/19 09:37:01;;;;;;;28.58;13.52;;;;;;;;;;5093710;28;20048;-64
2022/01/19 09:39:27;;;;;;;33.92;13.55;;;;;;;;;;5094115;28;20028;-65
2022/01/19 09:41:55;;;;;;;33.42;12.95;;;;;;;;;;5094137;28;20475;-65
2022/01/19 09:44:23;;;;;;;31.85;12.00;;;;;;;;;;5094006;28;20032;-66
2022/01/19 09:46:49;;;;;;;27.77;10.55;;;;;;;;;;5075795;28;20085;-65
2022/01/19 09:49:17;;;;;;;28.75;10.80;;;;;;;;;;5093968;28;20381;-65
2022/01/19 09:51:44;;;;;;;38.40;15.20;;;;;;;;;;5093791;28;20024;-65
2022/01/19 09:54:14;;;;;;;34.53;13.77;;;;;;;;;;5093783;28;20107;-65
2022/01/19 09:56:41;;;;;;;39.78;13.30;;;;;;;;;;5093746;28;20050;-66
2022/01/19 09:59:08;;;;;;;32.15;12.05;;;;;;;;;;5093675;28;20024;-65
2022/01/19 10:01:34;;;;;;;32.53;15.43;;;;;;;;;;5064311;28;20024;-63
2022/01/19 10:04:17;;;;;;;39.80;11.27;;;;;;;;;;5087619;28;20031;-64
2022/01/19 10:06:43;;;;;;;31.77;11.73;;;;;;;;;;5072846;28;20109;-64
2022/01/19 10:09:09;;;;;;;39.90;13.48;;;;;;;;;;5093290;28;20022;-69
2022/01/19 10:17:06;;;;;;;30.75;11.48;;;;;;;;;;5093131;28;20089;-65
2022/01/19 10:19:32;;;;;;;;;;;;;;;;;;5093705;28;20103;-66
2022/01/19 10:22:15;;;;;;;29.77;12.65;;;;;;;;;;5083196;28;19909;-69
2022/01/19 10:24:48;;;;;;;30.77;11.63;;;;;;;;;;5072957;28;20036;-63
2022/01/19 10:27:29;;;;;;;26.27;10.52;;;;;;;;;;5073098;28;20353;-63
2022/01/19 10:30:11;;;;;;;39.28;12.10;;;;;;;;;;5071582;28;20070;-63
2022/01/19 10:32:42;;;;;;;38.15;17.52;;;;;;;;;;5071485;28;20074;-62
2022/01/19 10:35:14;;;;;;;29.98;9.60;;;;;;;;;;5072647;28;20047;-62
2022/01/19 10:37:41;;;;;;;26.17;10.85;;;;;;;;;;5074760;28;20115;-64
2022/01/19 10:40:07;;;;;;;40.75;14.45;;;;;;;;;;5092720;28;20414;-62
2022/01/19 10:42:34;;;;;;;29.50;10.70;;;;;;;;;;5074539;28;20411;-63
2022/01/19 10:45:04;;;;;;;30.52;11.52;;;;;;;;;;5093025;28;20379;-63
2022/01/19 10:47:46;;;;;;;33.60;12.73;;;;;;;;;;5093034;28;20036;-63
2022/01/19 10:50:32;;;;;;;31.45;10.82;;;;;;;;;;5074556;28;20127;-63
2022/01/19 10:53:03;;;;;;;29.33;10.60;;;;;;;;;;5092905;28;20078;-62
2022/01/19 10:55:31;;;;;;;33.57;10.17;;;;;;;;;;5092863;28;20013;-63
2022/01/19 10:57:59;;;;;;;35.90;11.07;;;;;;;;;;5092905;28;20732;-63
2022/01/19 11:00:25;;;;;;;33.03;11.60;;;;;;;;;;5073994;28;20016;-63
2022/01/19 11:02:53;;;;;;;34.72;12.55;;;;;;;;;;5074247;28;20477;-63
2022/01/19 11:05:48;;;;;;;40.08;12.82;;;10.00;75.10;;;;;;5092765;28;20437;-63
2022/01/19 11:08:17;;;;;;;41.58;14.00;;;9.80;75.00;;;;;;5092638;28;20020;-63
2022/01/19 11:10:49;;;;;;;35.22;13.48;;;;;;;;;;5092956;28;20089;-62
2022/01/19 11:13:28;;;;;;;27.05;8.15;;;;;;;;;;5092786;28;20035;-62
2022/01/19 11:15:55;;;;;;;40.05;13.32;;;;;;;;;;5090108;28;20050;-62
2022/01/19 11:18:22;;;;;;;66.85;33.53;;;;;;;;;;5092818;28;20051;-62
2022/01/19 11:20:50;;;;;;;25.45;8.40;;;;;;;;;;5092233;28;20375;-63
2022/01/19 11:23:25;;;;;;;25.73;9.13;;;;;;;;;;5092500;28;20029;-62
2022/01/19 11:25:54;;;;;;;22.40;6.53;;;;;;;;;;5092327;28;20503;-62
2022/01/19 11:28:27;;;;;;;25.02;8.65;;;;;;;;;;5091756;28;20103;-62
2022/01/19 11:30:54;;;;;;;30.95;9.00;;;;;;;;;;5092517;28;20411;-62
2022/01/19 11:33:25;;;;;;;21.23;6.40;;;;;;;;;;5092155;28;20032;-62
2022/01/19 11:36:15;;;;;;;24.67;7.07;;;;;;;;;;5091666;28;20108;-62
2022/01/19 11:38:42;;;;;;;23.48;6.10;;;;;;;;;;5078951;28;20551;-62
2022/01/19 11:41:09;;;;;;;24.15;7.35;;;;;;;;;;5091216;28;20016;-62
2022/01/19 11:43:36;;;;;;;26.60;8.48;;;;;;;;;;5092068;28;20028;-62
2022/01/19 11:46:04;;;;;;;30.05;9.80;;;;;;;;;;5095081;28;20108;-62
2022/01/19 11:48:34;;;;;;;30.10;10.70;;;;;;;;;;5095039;28;20032;-62
2022/01/19 11:51:23;;;;;;;18.98;6.72;;;;;;;;;;5095831;28;20016;-62
2022/01/19 11:54:10;;;;;;;30.40;11.20;;;;;;;;;;5077783;28;20484;-62
2022/01/19 11:56:55;;;;;;;26.88;10.57;;;;;;;;;;5076856;28;20028;-62
2022/01/19 11:59:22;;;;;;;19.77;6.43;;;;;;;;;;5096034;28;20039;-62
2022/01/19 12:01:48;;;;;;;37.13;8.60;;;;;;;;;;5094544;28;20020;-62
2022/01/19 12:04:17;;;;;;;31.08;9.93;;;;;;;;;;5094380;28;20028;-62
2022/01/19 12:06:43;;;;;;;28.42;9.48;;;;;;;;;;5077042;28;20120;-62
2022/01/19 12:09:11;;;;;;;29.10;10.65;;;;;;;;;;5095587;28;20024;-63
2022/01/19 12:11:42;;;;;;;45.35;19.33;;;;;;;;;;5095612;28;20020;-63
2022/01/19 12:19:10;;;;;;;21.90;8.05;;;;;;;;;;5095086;28;20119;-63
2022/01/19 12:21:49;;;;;;;21.27;7.13;;;;;;;;;;5095544;28;20059;-64
2022/01/19 12:24:25;;;;;;;21.38;8.40;;;;;;;;;;5087772;28;20020;-63
2022/01/19 12:26:53;;;;;;;21.92;7.18;;;;;;;;;;5076839;28;20083;-63
2022/01/19 12:29:37;;;;;;;20.63;7.20;;;;;;;;;;5095162;28;20024;-63
2022/01/19 12:32:10;;;;;;;27.98;8.93;;;;;;;;;;5076925;28;20056;-63
2022/01/19 12:34:44;;;;;;;21.25;8.20;;;;;;;;;;5094818;28;20035;-63
2022/01/19 12:37:11;;;;;;;25.17;7.18;;;;;;;;;;5076684;28;20043;-64
2022/01/19 12:39:38;;;;;;;30.17;7.72;;;;;;;;;;5095037;28;20475;-63
2022/01/19 12:42:15;;;;;;;31.30;12.52;;;;;;;;;;5076175;28;20021;-63
2022/01/19 12:44:55;;;;;;;28.90;11.73;;;;;;;;;;5094335;28;20067;-63
2022/01/19 12:47:27;;;;;;;23.90;7.65;;;;;;;;;;5076641;28;20237;-63
2022/01/19 12:49:57;;;;;;;27.63;7.50;;;;;;;;;;5076480;28;20115;-62
2022/01/19 12:52:25;;;;;;;27.35;8.18;;;;;;;;;;5094702;28;20161;-63
2022/01/19 12:54:52;;;;;;;37.63;9.68;;;;;;;;;;5094427;28;20075;-64
2022/01/19 12:57:18;;;;;;;29.75;10.98;;;;;;;;;;5075307;28;20028;-64
2022/01/19 12:59:46;;;;;;;25.10;9.13;;;;;;;;;;5090870;28;20372;-63
2022/01/19 13:02:13;;;;;;;18.40;9.18;;;;;;;;;;5093835;28;20082;-64
2022/01/19 13:04:41;;;;;;;29.58;12.75;;;;;;;;;;5094383;28;20118;-62
2022/01/19 13:07:20;;;;;;;31.40;9.80;;;;;;;;;;5076201;28;20028;-65
2022/01/19 13:10:10;;;;;;;26.75;11.13;;;;;;;;;;5094111;28;20027;-68
2022/01/19 13:12:44;;;;;;;30.08;13.55;;;;;;;;;;5076102;28;20468;-62
2022/01/19 13:15:10;;;;;;;35.55;11.80;;;;;;;;;;5094274;28;20058;-62
2022/01/19 13:17:40;;;;;;;35.63;14.90;;;;;;;;;;5093217;28;20043;-63
2022/01/19 13:20:11;;;;;;;24.05;8.70;;;;;;;;;;5094157;28;20024;-62
2022/01/19 13:22:45;;;;;;;17.05;7.32;;;;;;;;;;5094022;28;20024;-65
2022/01/19 13:25:19;;;;;;;23.55;8.13;;;;;;;;;;5076001;28;20467;-63
2022/01/19 13:27:46;;;;;;;18.60;7.20;;;;;;;;;;5094143;28;20024;-63
2022/01/19 13:30:13;;;;;;;18.75;6.90;;;;;;;;;;5075953;28;20542;-63
2022/01/19 13:32:39;;;;;;;20.27;5.80;;;;;;;;;;5093663;28;20021;-64
2022/01/19 13:35:08;;;;;;;17.38;5.97;;;;;;;;;;5093437;28;20048;-63
2022/01/19 13:37:41;;;;;;;21.67;8.55;;;;;;;;;;5075547;28;20020;-63
2022/01/19 13:40:09;;;;;;;57.88;11.32;;;;;;;;;;5094148;28;20480;-63
2022/01/19 13:42:41;;;;;;;29.95;10.27;;;;;;;;;;5093144;28;20111;-63
2022/01/19 13:45:10;;;;;;;28.15;9.77;;;;;;;;;;5069959;28;20032;-63
2022/01/19 13:48:04;;;;;;;27.15;10.05;;;;;;;;;;5092517;28;20488;-63
2022/01/19 13:50:31;;;;;;;25.63;9.52;;;;;;;;;;5072689;28;20048;-63
2022/01/19 13:52:57;;;;;;;16.35;8.98;;;;;;;;;;5088996;28;20103;-63
2022/01/19 13:55:24;;;;;;;54.22;27.65;;;;;;;;;;5074113;28;20016;-63
2022/01/19 13:57:51;;;;;;;38.50;16.15;;;;;;;;;;5093651;28;20096;-62
2022/01/19 14:00:18;;;;;;;28.30;10.90;;;;;;;;;;5093617;28;20070;-63
2022/01/19 14:02:57;;;;;;;31.27;11.52;;;;;;;;;;5093402;28;20016;-62
2022/01/19 14:05:36;;;;;;;32.92;12.18;;;;;;;;;;5093208;28;20375;-63
2022/01/19 14:08:03;;;;;;;28.27;10.27;;;;;;;;;;5072140;28;20031;-62
2022/01/19 14:10:42;;;;;;;29.95;10.23;;;;;;;;;;5093220;28;20099;-62
2022/01/19 14:13:28;;;;;;;57.80;20.67;;;;;;;;;;5092875;28;20484;-67
2022/01/19 14:15:56;;;;;;;36.00;17.42;;;;;;;;;;5074944;28;20487;-62
2022/01/19 14:18:22;;;;;;;39.30;17.23;;;;;;;;;;5074966;28;20061;-63
2022/01/19 14:21:08;;;;;;;78.80;29.85;;;;;;;;;;5074579;28;20024;-62
2022/01/19 14:23:35;;;;;;;58.42;25.95;;;;;;;;;;5093061;28;20460;-63
2022/01/19 14:26:05;;;;;;;35.60;15.20;;;;;;;;;;5087032;28;20039;-62
2022/01/19 14:28:32;;;;;;;34.10;13.90;;;;;;;;;;5054975;28;20024;-62
2022/01/19 14:31:02;;;;;;;37.95;12.75;;;;;;;;;;5074089;28;20368;-62
2022/01/19 14:33:28;;;;;;;42.33;13.18;;;;;;;;;;5090263;28;20055;-62
2022/01/19 14:35:57;;;;;;;42.05;13.45;;;;;;;;;;5092295;28;20127;-64
2022/01/19 14:38:36;;;;;;;42.00;16.02;;;;;;;;;;5092856;28;20024;-64
2022/01/19 14:41:26;;;;;;;53.10;19.13;;;;;;;;;;5092817;28;20035;-64
2022/01/19 14:44:00;;;;;;;41.92;17.25;;;;;;;;;;5092503;28;20426;-63
2022/01/19 14:46:40;;;;;;;46.95;18.85;;;;;;;;;;5092940;28;20036;-63
2022/01/19 14:49:07;;;;;;;43.95;18.20;;;;;;;;;;5093102;28;20106;-65
2022/01/19 14:51:37;;;;;;;44.17;19.92;;;;;;;;;;5093064;28;20108;-65
2022/01/19 14:54:05;;;;;;;51.63;20.95;;;;;;;;;;5092702;28;20502;-65
2022/01/19 14:56:32;;;;;;;49.63;22.17;;;;;;;;;;5074860;28;20090;-64
2022/01/19 14:58:59;;;;;;;56.08;21.55;;;;;;;;;;5093074;28;20461;-63
2022/01/19 15:01:26;;;;;;;51.58;21.75;;;;;;;;;;5092931;28;20035;-63
2022/01/19 15:03:52;;;;;;;59.22;24.05;;;;;;;;;;5092742;28;20077;-63
2022/01/19 15:06:19;;;;;;;55.72;24.13;;;;;;;;;;5074671;28;20454;-63
2022/01/19 15:08:45;;;;;;;45.58;20.88;;;;;;;;;;5092912;28;20025;-63
2022/01/19 15:11:11;;;;;;;48.15;20.42;;;;;;;;;;5092980;28;20110;-63
2022/01/19 15:13:37;;;;;;;48.42;20.90;;;;;;;;;;5092869;28;20510;-63
2022/01/19 15:16:06;;;;;;;57.47;21.27;;;;;;;;;;5092917;28;20032;-63
2022/01/19 15:18:32;;;;;;;48.92;22.35;;;;;;;;;;5092814;28;20039;-63
2022/01/19 15:20:58;;;;;;;53.90;22.60;;;;;;;;;;5096214;28;20119;-63
2022/01/19 15:23:24;;;;;;;60.08;23.23;;;;;;;;;;5078501;28;20024;-63
2022/01/19 15:25:51;;;;;;;50.20;25.60;;;;;;;;;;5096072;28;20446;-63
2022/01/19 15:28:18;;;;;;;58.60;25.77;;;;;;;;;;5096646;28;20082;-64
2022/01/19 15:30:47;;;;;;;67.90;26.95;;;;;;;;;;5096629;28;20048;-63
2022/01/19 15:33:13;;;;;;;61.28;27.77;;;;;;;;;;5078334;28;20039;-63
2022/01/19 15:35:39;;;;;;;70.22;32.22;;;;;;;;;;5078094;28;20427;-63
2022/01/19 15:38:07;;;;;;;72.65;30.60;;;;;;;;;;5096518;28;20059;-65
2022/01/19 15:40:34;;;;;;;116.45;48.13;;;;;;;;;;5096584;28;20028;-63
2022/01/19 15:43:00;;;;;;;117.88;49.88;;;;;;;;;;5096150;28;20467;-63
2022/01/19 15:45:29;;;;;;;134.13;59.40;;;;;;;;;;5096384;28;20028;-63
2022/01/19 15:47:57;;;;;;;106.97;44.22;;;;;;;;;;5078028;28;20024;-62
2022/01/19 15:50:24;;;;;;;98.78;43.58;;;;;;;;;;5096404;28;20028;-63
2022/01/19 15:52:50;;;;;;;91.80;40.15;;;;;;;;;;5093759;28;20036;-63
2022/01/19 15:55:16;;;;;;;81.45;38.00;;;;;;;;;;5095784;28;20095;-62
2022/01/19 15:57:43;;;;;;;88.57;37.65;;;;;;;;;;5095551;28;20099;-62
2022/01/19 16:00:10;;;;;;;83.70;40.70;;;;;;;;;;5077820;28;20115;-62
2022/01/19 16:02:36;;;;;;;113.72;51.05;;;;;;;;;;5095912;28;20032;-62
2022/01/19 16:05:03;;;;;;;130.02;56.78;;;;;;;;;;5095648;28;20081;-63